Time;durP1;ratioP1;P1;durP2;ratioP2;P2;SDS_P1;SDS_P2;PMS_P1;PMS_P2;Temp;Humidity;BMP_temperature;BMP_pressure;BME280_temperature;BME280_humidity;BME280_pressure;Samples;Min_cycle;Max_cycle;Signal;HPM_P1;HPM_P2
2020/12/24 00:00:11;;;;;;;;;;;;;;;23.32;38.16;99322.28;4963445;28;20364;-61
2020/12/24 00:02:38;;;;;;;;;;;;;;;23.31;38.07;99321.47;4964507;28;19926;-63
2020/12/24 00:05:10;;;;;;;;;;;;;;;23.31;38.15;99318.69;4975413;28;19926;-63
2020/12/24 00:07:36;;;;;;;;;;;;;;;23.30;37.99;99308.72;4972192;28;19964;-61
2020/12/24 00:10:02;;;;;;;;;;;;;;;23.29;37.89;99318.19;4966841;28;19927;-62
2020/12/24 00:12:29;;;;;;;;;;;;;;;23.30;37.86;99327.34;4974734;28;19927;-62
2020/12/24 00:14:55;;;;;;;;;;;;;;;23.30;38.38;99324.56;4972706;28;19926;-63
2020/12/24 00:17:21;;;;;;;;;;;;;;;23.30;38.28;99319.84;4973410;28;19926;-63
2020/12/24 00:19:47;;;;;;;;;;;;;;;23.30;38.09;99324.56;4973383;28;19930;-62
2020/12/24 00:22:14;;;;;;;;;;;;;;;23.31;38.03;99321.47;4967847;28;19928;-62
2020/12/24 00:24:40;;;;;;;;;;;;;;;23.30;37.96;99322.63;4963518;28;19930;-62
2020/12/24 00:27:06;;;;;;;;;;;;;;;23.31;37.85;99320.66;4954968;28;19934;-62
2020/12/24 00:29:33;;;;;;;;;;;;;;;23.32;38.09;99320.34;4955444;28;19930;-62
2020/12/24 00:31:59;;;;;;;;;;;;;;;23.32;38.00;99317.56;4954037;28;20456;-63
2020/12/24 00:34:25;;;;;;;;;;;;;;;23.32;37.97;99300.88;4954260;28;19933;-61
2020/12/24 00:36:52;;;;;;;;;;;;;;;23.32;38.00;99309.22;4961435;28;19926;-62
2020/12/24 00:39:19;;;;;;;;;;;;;;;23.31;38.17;99299.22;4974835;28;20880;-62
2020/12/24 00:41:45;;;;;;;;;;;;;;;23.30;38.02;99302.31;4975141;28;19926;-61
2020/12/24 00:44:11;;;;;;;;;;;;;;;23.26;38.05;99291.03;4974852;28;19926;-61
2020/12/24 00:46:37;;;;;;;;;;;;;;;23.25;38.14;99302.47;4974096;28;19926;-61
2020/12/24 00:49:04;;;;;;;;;;;;;;;23.24;38.14;99306.41;4975419;28;19926;-62
2020/12/24 00:51:30;;;;;;;;;;;;;;;23.24;38.06;99298.06;4974750;28;19926;-62
2020/12/24 00:53:56;;;;;;;;;;;;;;;23.26;37.85;99291.03;4971170;28;19937;-62
2020/12/24 00:56:23;;;;;;;;;;;;;;;23.26;37.91;99284.66;4951404;28;19930;-60
2020/12/24 00:59:04;;;;;;;;;;;;;;;23.25;37.97;99283.84;4970861;28;19930;-61
2020/12/24 01:01:30;;;;;;;;;;;;;;;23.24;38.14;99282.19;4962747;28;19934;-61
2020/12/24 01:03:57;;;;;;;;;;;;;;;23.25;38.01;99283.84;4956137;28;19974;-61
2020/12/24 01:06:23;;;;;;;;;;;;;;;23.24;37.88;99271.06;4973898;28;19926;-60
2020/12/24 01:08:49;;;;;;;;;;;;;;;23.24;37.95;99268.28;4974056;28;19926;-61
2020/12/24 01:11:16;;;;;;;;;;;;;;;23.25;38.00;99261.59;4974498;28;19930;-62
2020/12/24 01:13:42;;;;;;;;;;;;;;;23.28;37.95;99260.94;4969238;28;19927;-61
2020/12/24 01:16:09;;;;;;;;;;;;;;;23.30;37.83;99257.84;4957824;28;19993;-63
2020/12/24 01:18:55;;;;;;;;;;;;;;;23.31;37.71;99260.31;4974552;28;19930;-62
2020/12/24 01:21:21;;;;;;;;;;;;;;;23.30;37.88;99258.66;4976464;28;20009;-62
2020/12/24 01:23:47;;;;;;;;;;;;;;;23.31;37.77;99251.13;4975941;28;19934;-60
2020/12/24 01:26:13;;;;;;;;;;;;;;;23.30;37.91;99257.84;4969688;28;19954;-61
2020/12/24 01:28:40;;;;;;;;;;;;;;;23.29;38.03;99261.75;4964709;28;19981;-62
2020/12/24 01:31:06;;;;;;;;;;;;;;;23.29;37.78;99256.19;4973759;28;19926;-61
2020/12/24 01:33:32;;;;;;;;;;;;;;;23.28;37.69;99251.78;4971868;28;19949;-61
2020/12/24 01:35:59;;;;;;;;;;;;;;;23.25;37.74;99253.25;4970625;28;20503;-62
2020/12/24 01:38:25;;;;;;;;;;;;;;;23.25;37.79;99252.44;4973700;28;19973;-62
2020/12/24 01:40:55;;;;;;;;;;;;;;;23.24;37.86;99240.50;4973920;28;19996;-61
2020/12/24 01:43:21;;;;;;;;;;;;;;;23.25;37.86;99246.88;4972640;28;19980;-62
2020/12/24 01:45:54;;;;;;;;;;;;;;;23.24;37.76;99250.78;4973587;28;19930;-61
2020/12/24 01:48:21;;;;;;;;;;;;;;;23.21;37.99;99252.28;4971521;28;19934;-63
2020/12/24 01:50:48;;;;;;;;;;;;;;;23.21;38.12;99243.13;4970902;28;20412;-63
2020/12/24 01:53:18;;;;;;;;;;;;;;;23.22;37.89;99242.78;4974284;28;19926;-63
2020/12/24 01:55:45;;;;;;;;;;;;;;;23.25;37.78;99252.44;4972680;28;19932;-61
2020/12/24 01:58:11;;;;;;;;;;;;;;;23.19;38.16;99243.44;4972818;28;19926;-61
2020/12/24 02:00:37;;;;;;;;;;;;;;;23.18;37.92;99227.91;4972574;28;20369;-61
2020/12/24 02:03:04;;;;;;;;;;;;;;;23.19;37.83;99237.06;4973256;28;20503;-61
2020/12/24 02:05:30;;;;;;;;;;;;;;;23.16;38.05;99248.84;4940849;28;19976;-61
2020/12/24 02:07:56;;;;;;;;;;;;;;;23.06;37.95;99249.94;4970518;28;19930;-60
2020/12/24 02:10:22;;;;;;;;;;;;;;;22.93;38.27;99253.63;4965347;28;20397;-61
2020/12/24 02:12:48;;;;;;;;;;;;;;;22.83;38.53;99245.63;4959843;28;19965;-62
2020/12/24 02:15:15;;;;;;;;;;;;;;;22.82;38.59;99243.97;4962127;28;20013;-61
2020/12/24 02:17:41;;;;;;;;;;;;;;;22.87;38.16;99243.84;4973108;28;20396;-61
2020/12/24 02:20:07;;;;;;;;;;;;;;;22.94;37.98;99219.97;4973041;28;19958;-60
2020/12/24 02:22:33;;;;;;;;;;;;;;;23.00;37.71;99220.66;4973071;28;19926;-61
2020/12/24 02:25:01;;;;;;;;;;;;;;;23.02;37.82;99215.59;4971975;28;22345;-61
2020/12/24 02:27:27;;;;;;;;;;;;;;;23.08;37.85;99205.97;4971541;28;20037;-60
2020/12/24 02:29:53;;;;;;;;;;;;;;;23.17;37.50;99201.25;4972757;28;19926;-61
2020/12/24 02:32:19;;;;;;;;;;;;;;;23.18;37.58;99202.88;4972750;28;19926;-61
2020/12/24 02:34:46;;;;;;;;;;;;;;;23.22;37.60;99201.06;4972784;28;19926;-62
2020/12/24 02:37:12;;;;;;;;;;;;;;;23.23;37.22;99199.09;4972866;28;19949;-62
2020/12/24 02:39:39;;;;;;;;;;;;;;;23.23;37.24;99186.03;4972504;28;19930;-60
2020/12/24 02:42:05;;;;;;;;;;;;;;;23.22;37.32;99175.22;4972382;28;19953;-60
2020/12/24 02:44:31;;;;;;;;;;;;;;;23.17;37.31;99165.09;4972326;28;19965;-61
2020/12/24 02:46:57;;;;;;;;;;;;;;;23.11;37.47;99149.72;4971538;28;19981;-61
2020/12/24 02:49:23;;;;;;;;;;;;;;;23.10;37.41;99153.66;4972219;28;19926;-61
2020/12/24 02:51:50;;;;;;;;;;;;;;;23.06;37.37;99144.31;4972444;28;19930;-61
2020/12/24 02:54:16;;;;;;;;;;;;;;;23.06;37.36;99152.66;4971372;28;19976;-61
2020/12/24 02:56:42;;;;;;;;;;;;;;;23.10;37.60;99158.38;4972070;28;19927;-60
2020/12/24 02:59:09;;;;;;;;;;;;;;;23.17;37.34;99169.84;4972068;28;19949;-61
2020/12/24 03:01:35;;;;;;;;;;;;;;;23.18;37.11;99177.03;4968644;28;19967;-61
2020/12/24 03:04:02;;;;;;;;;;;;;;;23.20;37.21;99183.09;4972635;28;20316;-60
2020/12/24 03:06:29;;;;;;;;;;;;;;;23.23;37.11;99177.69;4970763;28;20022;-61
2020/12/24 03:08:55;;;;;;;;;;;;;;;23.25;37.07;99160.69;4968044;28;19927;-60
2020/12/24 03:11:21;;;;;;;;;;;;;;;23.30;36.81;99175.25;4972127;28;19929;-61
2020/12/24 03:13:48;;;;;;;;;;;;;;;23.32;36.89;99161.03;4970929;28;20455;-62
2020/12/24 03:16:14;;;;;;;;;;;;;;;23.37;36.75;99155.31;4972430;28;19926;-60
2020/12/24 03:18:41;;;;;;;;;;;;;;;23.42;36.66;99165.44;4971970;28;19926;-62
2020/12/24 03:21:07;;;;;;;;;;;;;;;23.42;36.29;99152.38;4972213;28;19937;-60
2020/12/24 03:23:33;;;;;;;;;;;;;;;23.48;36.45;99147.47;4954878;28;19973;-61
2020/12/24 03:25:59;;;;;;;;;;;;;;;23.52;36.51;99137.31;4971167;28;19973;-61
2020/12/24 03:28:26;;;;;;;;;;;;;;;23.51;36.26;99142.06;4971884;28;19930;-62
2020/12/24 03:30:52;;;;;;;;;;;;;;;23.51;36.32;99155.16;4970789;28;19933;-61
2020/12/24 03:33:19;;;;;;;;;;;;;;;23.49;36.52;99149.09;4971266;28;19957;-62
2020/12/24 03:35:45;;;;;;;;;;;;;;;23.47;36.36;99140.25;4974135;28;19936;-61
2020/12/24 03:38:11;;;;;;;;;;;;;;;23.46;36.11;99149.75;4976933;28;19926;-60
2020/12/24 03:40:37;;;;;;;;;;;;;;;23.44;36.27;99147.28;4977016;28;20025;-60
2020/12/24 03:43:03;;;;;;;;;;;;;;;23.40;36.17;99151.88;4978154;28;19926;-61
2020/12/24 03:45:31;;;;;;;;;;;;;;;23.37;36.32;99152.53;4978356;28;19973;-61
2020/12/24 03:47:57;;;;;;;;;;;;;;;23.32;36.27;99136.00;4979020;28;19926;-61
2020/12/24 03:50:35;;;;;;;;;;;;;;;23.30;36.30;99125.19;4979549;28;19926;-62
2020/12/24 03:53:01;;;;;;;;;;;;;;;23.29;36.24;99131.91;4980427;28;19926;-62
2020/12/24 03:55:28;;;;;;;;;;;;;;;23.27;36.41;99144.50;4977522;28;19930;-62
2020/12/24 03:57:54;;;;;;;;;;;;;;;23.28;36.42;99160.84;4961520;28;19926;-61
2020/12/24 04:00:20;;;;;;;;;;;;;;;23.29;36.32;99168.03;4978029;28;19926;-61
2020/12/24 04:02:47;;;;;;;;;;;;;;;23.28;36.35;99166.41;4974365;28;19930;-62
2020/12/24 04:05:13;;;;;;;;;;;;;;;23.30;36.30;99174.44;4976773;28;19926;-62
2020/12/24 04:07:39;;;;;;;;;;;;;;;23.33;36.07;99173.78;4975349;28;20388;-62
2020/12/24 04:10:05;;;;;;;;;;;;;;;23.34;36.29;99162.34;4967100;28;19969;-60
2020/12/24 04:12:31;;;;;;;;;;;;;;;23.37;36.10;99153.34;4970264;28;20028;-62
2020/12/24 04:14:58;;;;;;;;;;;;;;;23.37;36.11;99153.34;4973472;28;19974;-62
2020/12/24 04:17:25;;;;;;;;;;;;;;;23.40;35.95;99161.03;4978400;28;19926;-61
2020/12/24 04:19:52;;;;;;;;;;;;;;;23.43;36.18;99172.66;4975903;28;19926;-61
2020/12/24 04:22:18;;;;;;;;;;;;;;;23.42;35.94;99177.38;4986497;28;19969;-61
2020/12/24 04:24:44;;;;;;;;;;;;;;;23.42;35.89;99176.56;4986383;28;19926;-61
2020/12/24 04:27:10;;;;;;;;;;;;;;;23.40;35.97;99176.91;4983306;28;19927;-61
2020/12/24 04:29:36;;;;;;;;;;;;;;;23.39;36.03;99173.28;4988305;28;20028;-61
2020/12/24 04:32:03;;;;;;;;;;;;;;;23.36;35.78;99171.16;4985032;28;19926;-62
2020/12/24 04:34:29;;;;;;;;;;;;;;;23.33;36.00;99166.25;4975962;28;20013;-63
2020/12/24 04:36:55;;;;;;;;;;;;;;;23.30;35.83;99161.34;4964799;28;20527;-61
2020/12/24 04:39:21;;;;;;;;;;;;;;;23.26;36.00;99165.09;4972019;28;20408;-62
2020/12/24 04:41:47;;;;;;;;;;;;;;;23.23;36.10;99163.78;4974745;28;19926;-61
2020/12/24 04:44:14;;;;;;;;;;;;;;;23.21;36.31;99166.09;4955237;28;20403;-60
2020/12/24 04:46:41;;;;;;;;;;;;;;;23.19;36.00;99173.94;4974762;28;20321;-62
2020/12/24 04:49:07;;;;;;;;;;;;;;;23.17;35.97;99170.66;4957726;28;20383;-62
2020/12/24 04:51:33;;;;;;;;;;;;;;;23.17;35.90;99180.97;4957994;28;19966;-61
2020/12/24 04:53:59;;;;;;;;;;;;;;;23.20;35.85;99180.31;4974263;28;20466;-62
2020/12/24 04:56:26;;;;;;;;;;;;;;;23.22;35.79;99180.78;4973570;28;19926;-62
2020/12/24 04:58:53;;;;;;;;;;;;;;;23.19;35.93;99176.72;5031719;23;19976;-61
2020/12/24 05:01:19;;;;;;;;;;;;;;;23.20;35.78;99178.38;5033443;28;20013;-61
2020/12/24 05:03:46;;;;;;;;;;;;;;;23.22;35.80;99189.13;5037264;28;19925;-61
2020/12/24 05:06:15;;;;;;;;;;;;;;;23.18;35.67;99182.59;5048693;28;19925;-61
2020/12/24 05:09:02;;;;;;;;;;;;;;;23.20;35.67;99192.25;5028037;28;20423;-62
2020/12/24 05:11:32;;;;;;;;;;;;;;;23.18;35.59;99196.50;5013582;28;19925;-61
2020/12/24 05:14:16;;;;;;;;;;;;;;;23.18;35.42;99197.31;5013433;28;20020;-62
2020/12/24 05:16:54;;;;;;;;;;;;;;;23.18;35.35;99205.66;5013564;28;19965;-61
2020/12/24 05:19:20;;;;;;;;;;;;;;;23.18;35.49;99200.09;5023651;28;19964;-62
2020/12/24 05:21:46;;;;;;;;;;;;;;;23.19;35.36;99196.19;5013239;28;20028;-61
2020/12/24 05:24:26;;;;;;;;;;;;;;;23.20;35.29;99200.59;5027935;28;19926;-61
2020/12/24 05:26:53;;;;;;;;;;;;;;;23.24;35.18;99204.34;5013262;28;19984;-61
2020/12/24 05:29:19;;;;;;;;;;;;;;;23.29;35.38;99211.72;5012723;28;19926;-62
2020/12/24 05:31:46;;;;;;;;;;;;;;;23.29;35.07;99218.09;5014132;28;20024;-62
2020/12/24 05:34:19;;;;;;;;;;;;;;;23.26;35.19;99218.75;5029554;28;19932;-61
2020/12/24 05:36:45;;;;;;;;;;;;;;;23.26;35.03;99226.25;5011659;28;19941;-62
2020/12/24 05:39:12;;;;;;;;;;;;;;;23.26;35.15;99224.31;5027583;28;19935;-61
2020/12/24 05:41:38;;;;;;;;;;;;;;;23.25;35.04;99221.84;5012778;28;20056;-60
2020/12/24 05:44:05;;;;;;;;;;;;;;;23.20;35.20;99217.28;5012798;28;20565;-61
2020/12/24 05:46:46;;;;;;;;;;;;;;;23.18;35.03;99208.44;5013022;28;19926;-61
2020/12/24 05:49:14;;;;;;;;;;;;;;;23.15;35.11;99209.09;5012892;28;19969;-61
2020/12/24 05:51:57;;;;;;;;;;;;;;;23.12;35.07;99201.41;5011704;28;20013;-61
2020/12/24 05:54:24;;;;;;;;;;;;;;;23.05;35.45;99206.59;5012575;28;20354;-61
2020/12/24 05:56:50;;;;;;;;;;;;;;;23.03;35.41;99198.59;5027679;28;19949;-61
2020/12/24 05:59:17;;;;;;;;;;;;;;;23.04;35.14;99210.53;5010918;28;20016;-61
2020/12/24 06:02:04;;;;;;;;;;;;;;;23.02;35.00;99201.69;5015664;28;19925;-61
2020/12/24 06:04:52;;;;;;;;;;;;;;;23.02;34.95;99204.47;5012298;28;20415;-61
2020/12/24 06:07:18;;;;;;;;;;;;;;;23.02;34.98;99205.28;5023668;28;19935;-61
2020/12/24 06:09:44;;;;;;;;;;;;;;;23.04;34.96;99204.97;5011281;28;19941;-61
2020/12/24 06:12:17;;;;;;;;;;;;;;;23.06;34.57;99208.25;5012365;28;19929;-61
2020/12/24 06:14:47;;;;;;;;;;;;;;;22.94;34.35;99205.25;5027436;28;19930;-62
2020/12/24 06:17:17;;;;;;;;;;;;;;;22.80;34.39;99202.63;5027694;28;20012;-61
2020/12/24 06:19:43;;;;;;;;;;;;;;;22.73;35.06;99205.81;5027459;28;19925;-61
2020/12/24 06:22:12;;;;;;;;;;;;;;;22.69;34.34;99192.91;5010282;28;19957;-60
2020/12/24 06:24:43;;;;;;;;;;;;;;;22.58;34.55;99206.25;5001623;28;19980;-62
2020/12/24 06:27:20;;;;;;;;;;;;;;;22.52;34.75;99204.78;5012251;28;19999;-61
2020/12/24 06:29:47;;;;;;;;;;;;;;;22.48;34.77;99208.50;5027028;28;19973;-61
2020/12/24 06:32:16;;;;;;;;;;;;;;;22.41;34.60;99206.16;5026665;28;19932;-61
2020/12/24 06:34:43;;;;;;;;;;;;;;;22.33;35.24;99202.22;5027101;28;19925;-62
2020/12/24 06:37:16;;;;;;;;;;;;;;;22.31;35.29;99201.72;5011454;28;19925;-61
2020/12/24 06:39:43;;;;;;;;;;;;;;;22.40;35.68;99198.97;5011671;28;19929;-61
2020/12/24 06:42:28;;;;;;;;;;;;;;;22.49;35.37;99210.97;5026877;28;20382;-61
2020/12/24 06:44:54;;;;;;;;;;;;;;;22.55;35.25;99219.94;5011918;28;19931;-61
2020/12/24 06:47:21;;;;;;;;;;;;;;;22.54;34.92;99209.97;5011433;28;20012;-64
2020/12/24 06:49:47;;;;;;;;;;;;;;;22.56;35.14;99213.25;5026290;28;20303;-62
2020/12/24 06:52:30;;;;;;;;;;;;;;;22.56;35.19;99211.28;5011831;28;19937;-61
2020/12/24 06:55:15;;;;;;;;;;;;;;;22.56;35.01;99216.84;5011783;28;20029;-60
2020/12/24 06:57:42;;;;;;;;;;;;;;;22.52;35.00;99218.66;5011360;28;19926;-61
2020/12/24 07:00:17;;;;;;;;;;;;;;;22.53;34.57;99214.72;5006965;28;20014;-61
2020/12/24 07:02:44;;;;;;;;;;;;;;;22.48;34.36;99225.97;5012184;28;19925;-62
2020/12/24 07:05:29;;;;;;;;;;;;;;;22.42;34.83;99216.13;5011392;28;19957;-62
2020/12/24 07:07:55;;;;;;;;;;;;;;;22.39;34.67;99216.78;5026425;28;19953;-60
2020/12/24 07:10:40;;;;;;;;;;;;;;;22.37;34.54;99214.31;5026575;28;20016;-61
2020/12/24 07:13:07;;;;;;;;;;;;;;;22.43;34.76;99208.63;5026549;28;20295;-62
2020/12/24 07:15:33;;;;;;;;;;;;;;;22.44;34.65;99213.06;5019756;28;19926;-61
2020/12/24 07:17:59;;;;;;;;;;;;;;;22.43;34.79;99212.22;5002893;28;19964;-60
2020/12/24 07:20:25;;;;;;;;;;;;;;;22.42;34.28;99210.59;5011257;28;20388;-60
2020/12/24 07:22:52;;;;;;;;;;;;;;;22.43;34.73;99214.19;5011954;28;20300;-60
2020/12/24 07:25:19;;;;;;;;;;;;;;;22.37;34.87;99216.28;5011668;28;19971;-60
2020/12/24 07:27:46;;;;;;;;;;;;;;;22.34;34.78;99211.34;5018732;28;20400;-63
2020/12/24 07:30:13;;;;;;;;;;;;;;;22.31;34.51;99209.22;5025150;28;19925;-61
2020/12/24 07:32:39;;;;;;;;;;;;;;;22.23;34.82;99201.66;5013949;28;19926;-61
2020/12/24 07:35:06;;;;;;;;;;;;;;;22.19;35.18;99200.63;5017836;28;19926;-62
2020/12/24 07:37:32;;;;;;;;;;;;;;;22.19;35.11;99203.41;5014451;28;19980;-62
2020/12/24 07:39:58;;;;;;;;;;;;;;;22.18;34.91;99205.38;5038020;28;19925;-62
2020/12/24 07:42:26;;;;;;;;;;;;;;;22.18;35.05;99210.13;5018564;28;19925;-61
2020/12/24 07:44:53;;;;;;;;;;;;;;;22.22;35.66;99211.09;5015224;28;19944;-61
2020/12/24 07:47:19;;;;;;;;;;;;;;;22.26;34.88;99204.63;5013166;28;19925;-61
2020/12/24 07:49:51;;;;;;;;;;;;;;;22.22;34.94;99200.00;5015025;28;19929;-62
2020/12/24 07:52:17;;;;;;;;;;;;;;;22.23;35.11;99185.00;5014506;28;19929;-62
2020/12/24 07:54:43;;;;;;;;;;;;;;;22.21;35.11;99174.22;5023030;28;19949;-61
2020/12/24 07:57:09;;;;;;;;;;;;;;;22.32;34.45;99183.09;5018428;28;19925;-61
2020/12/24 07:59:36;;;;;;;;;;;;;;;22.50;34.11;99179.28;5024361;28;19926;-61
2020/12/24 08:02:02;;;;;;;;;;;;;;;22.65;33.81;99176.03;5037574;28;19925;-62
2020/12/24 08:04:29;;;;;;;;;;;;;;;22.71;33.85;99176.72;5003473;28;19925;-61
2020/12/24 08:06:55;;;;;;;;;;;;;;;22.68;33.36;99180.97;5029268;28;19929;-62
2020/12/24 08:09:22;;;;;;;;;;;;;;;22.68;33.61;99186.53;5029477;28;19929;-61
2020/12/24 08:11:52;;;;;;;;;;;;;;;22.70;33.56;99181.47;5014311;28;19926;-62
2020/12/24 08:14:21;;;;;;;;;;;;;;;22.74;33.74;99188.03;5014456;28;20012;-61
2020/12/24 08:16:47;;;;;;;;;;;;;;;22.78;33.59;99184.59;5029327;28;20403;-62
2020/12/24 08:19:31;;;;;;;;;;;;;;;22.84;33.40;99186.94;5031680;28;20290;-61
2020/12/24 08:21:58;;;;;;;;;;;;;;;22.87;33.32;99188.25;5030841;28;19925;-61
2020/12/24 08:24:24;;;;;;;;;;;;;;;22.86;33.22;99197.75;5014935;28;19984;-61
2020/12/24 08:26:51;;;;;;;;;;;;;;;22.99;33.59;99188.44;5026626;28;19976;-62
2020/12/24 08:29:17;;;;;;;;;;;;;;;23.30;33.08;99191.09;5012210;28;19936;-62
2020/12/24 08:31:45;;;;;;;;;;;;;;;23.53;32.73;99180.72;5029684;28;19926;-61
2020/12/24 08:34:12;;;;;;;;;;;;;;;23.66;32.74;99186.09;5014480;28;19925;-62
2020/12/24 08:36:42;;;;;;;;;;;;;;;23.74;32.42;99184.44;5024249;28;19926;-63
2020/12/24 08:39:10;;;;;;;;;;;;;;;23.82;32.23;99185.59;5013303;28;20177;-62
2020/12/24 08:41:37;;;;;;;;;;;;;;;23.88;31.94;99184.28;5014202;28;19926;-61
2020/12/24 08:44:03;;;;;;;;;;;;;;;23.93;32.09;99179.34;5012268;28;19926;-63
2020/12/24 08:46:30;;;;;;;;;;;;;;;24.01;31.85;99189.66;5012197;28;20308;-62
2020/12/24 08:48:56;;;;;;;;;;;;;;;24.11;31.69;99182.94;5028529;28;19929;-62
2020/12/24 08:51:22;;;;;;;;;;;;;;;24.27;31.42;99188.81;5018555;28;19971;-63
2020/12/24 08:54:04;;;;;;;;;;;;;;;24.38;31.26;99187.31;5013842;28;19930;-62
2020/12/24 08:56:30;;;;;;;;;;;;;;;24.72;30.66;99189.94;5012678;28;19932;-62
2020/12/24 08:58:56;;;;;;;;;;;;;;;24.85;30.52;99178.91;5020950;28;20361;-61
2020/12/24 09:01:23;;;;;;;;;;;;;;;24.80;30.32;99176.31;5028267;28;19936;-64
2020/12/24 09:03:49;;;;;;;;;;;;;;;24.66;30.71;99171.78;5009399;28;20294;-62
2020/12/24 09:06:16;;;;;;;;;;;;;;;24.45;31.03;99173.69;5013215;28;19932;-62
2020/12/24 09:08:49;;;;;;;;;;;;;;;24.25;31.31;99161.31;5028109;28;19929;-61
2020/12/24 09:11:25;;;;;;;;;;;;;;;24.12;31.60;99159.50;5027926;28;19957;-62
2020/12/24 09:14:04;;;;;;;;;;;;;;;24.10;31.48;99155.41;5028392;28;19965;-62
2020/12/24 09:16:32;;;;;;;;;;;;;;;24.04;31.72;99138.06;5028213;28;19933;-63
2020/12/24 09:19:05;;;;;;;;;;;;;;;24.00;31.90;99142.66;5012871;28;20105;-61
2020/12/24 09:21:32;;;;;;;;;;;;;;;24.01;31.79;99147.91;5008418;28;19961;-64
2020/12/24 09:24:10;;;;;;;;;;;;;;;24.02;31.60;99160.66;5026665;28;19932;-61
2020/12/24 09:26:43;;;;;;;;;;;;;;;24.34;30.97;99152.91;5013033;28;19965;-60
2020/12/24 09:29:09;;;;;;;;;;;;;;;24.84;30.39;99150.22;5012499;28;19933;-62
2020/12/24 09:31:35;;;;;;;;;;;;;;;25.19;29.77;99150.84;5027778;28;20016;-62
2020/12/24 09:34:01;;;;;;;;;;;;;;;26.06;28.50;99173.25;5012942;28;19968;-62
2020/12/24 09:36:28;;;;;;;;;;;;;;;26.92;26.65;99161.06;5012630;28;20295;-62
2020/12/24 09:38:54;;;;;;;;;;;;;;;27.40;26.46;99158.56;5012827;28;20358;-64
2020/12/24 09:41:20;;;;;;;;;;;;;;;27.98;25.64;99157.91;5027587;28;20016;-61
2020/12/24 09:43:46;;;;;;;;;;;;;;;27.54;26.03;99153.41;5012758;28;19926;-61
2020/12/24 09:46:13;;;;;;;;;;;;;;;26.50;27.46;99160.47;5012228;28;19932;-61
2020/12/24 09:48:39;;;;;;;;;;;;;;;26.31;27.71;99160.22;5027715;28;19926;-63
2020/12/24 09:51:06;;;;;;;;;;;;;;;26.31;27.79;99154.63;5012089;28;19925;-61
2020/12/24 09:53:32;;;;;;;;;;;;;;;25.92;28.05;99161.59;5027052;28;19933;-62
2020/12/24 09:55:58;;;;;;;;;;;;;;;25.44;28.99;99157.38;5011841;28;19979;-61
2020/12/24 09:58:25;;;;;;;;;;;;;;;25.05;29.66;99151.09;5007129;28;19944;-62
2020/12/24 10:00:51;;;;;;;;;;;;;;;24.82;29.91;99143.34;5028872;28;19929;-62
2020/12/24 10:03:17;;;;;;;;;;;;;;;24.60;30.50;99145.25;5013140;28;19930;-62
2020/12/24 10:05:43;;;;;;;;;;;;;;;24.49;30.57;99152.38;5012091;28;19925;-62
2020/12/24 10:08:09;;;;;;;;;;;;;;;24.38;30.74;99149.13;5027005;28;19937;-62
2020/12/24 10:10:36;;;;;;;;;;;;;;;24.30;30.89;99154.72;5012319;28;20094;-62
2020/12/24 10:13:02;;;;;;;;;;;;;;;24.25;30.96;99141.00;5011573;28;19934;-62
2020/12/24 10:15:28;;;;;;;;;;;;;;;24.24;30.84;99142.13;5012136;28;20492;-61
2020/12/24 10:17:56;;;;;;;;;;;;;;;24.19;30.97;99145.09;5010664;28;19949;-62
2020/12/24 10:20:22;;;;;;;;;;;;;;;24.18;31.02;99137.88;5011683;28;19932;-61
2020/12/24 10:22:48;;;;;;;;;;;;;;;24.26;30.87;99134.25;5011908;28;19926;-62
2020/12/24 10:25:15;;;;;;;;;;;;;;;24.54;30.60;99129.09;5012075;28;19956;-61
2020/12/24 10:27:41;;;;;;;;;;;;;;;24.65;30.11;99121.97;5011740;28;19926;-61
2020/12/24 10:30:07;;;;;;;;;;;;;;;24.54;30.47;99107.63;5010419;28;19929;-62
2020/12/24 10:32:36;;;;;;;;;;;;;;;24.61;30.15;99107.88;5012134;28;20371;-62
2020/12/24 10:35:02;;;;;;;;;;;;;;;24.60;30.38;99105.47;4999344;28;19964;-63
2020/12/24 10:37:30;;;;;;;;;;;;;;;24.60;30.14;99100.66;5012431;28;20303;-63
2020/12/24 10:39:56;;;;;;;;;;;;;;;24.56;30.32;99088.59;5011927;28;19925;-63
2020/12/24 10:42:22;;;;;;;;;;;;;;;24.58;30.33;99089.06;5011843;28;19925;-61
2020/12/24 10:44:48;;;;;;;;;;;;;;;24.70;29.92;99094.72;5026689;28;19965;-62
2020/12/24 10:47:15;;;;;;;;;;;;;;;25.15;29.36;99087.72;5026407;28;19925;-62
2020/12/24 10:49:41;;;;;;;;;;;;;;;26.01;28.13;99087.72;5011450;28;20457;-61
2020/12/24 10:52:11;;;;;;;;;;;;;;;26.14;27.84;99084.97;5011384;28;20419;-62
2020/12/24 10:54:38;;;;;;;;;;;;;;;26.33;27.32;99083.28;5010059;28;20026;-62
2020/12/24 10:57:04;;;;;;;;;;;;;;;26.52;27.22;99079.91;5026487;28;19992;-62
2020/12/24 10:59:30;;;;;;;;;;;;;;;26.65;26.65;99084.31;5018865;22;20392;-61
2020/12/24 11:01:59;;;;;;;;;;;;;;;26.70;26.72;99081.25;4984380;28;19929;-63
2020/12/24 11:04:26;;;;;;;;;;;;;;;26.37;26.95;99091.75;4985652;28;19981;-61
2020/12/24 11:06:52;;;;;;;;;;;;;;;25.93;27.90;99091.44;4987267;28;19926;-63
2020/12/24 11:09:18;;;;;;;;;;;;;;;25.85;27.83;99099.91;4982661;28;20368;-61
2020/12/24 11:11:44;;;;;;;;;;;;;;;25.72;28.18;99101.84;4992772;28;20449;-62
2020/12/24 11:14:11;;;;;;;;;;;;;;;25.60;28.14;99090.63;4992903;28;20281;-62
2020/12/24 11:16:38;;;;;;;;;;;;;;;25.36;28.80;99105.25;4975060;28;19961;-61
2020/12/24 11:19:04;;;;;;;;;;;;;;;25.20;29.20;99098.69;4991113;28;19926;-61
2020/12/24 11:21:31;;;;;;;;;;;;;;;25.01;29.40;99110.28;4991250;28;19933;-62
2020/12/24 11:23:57;;;;;;;;;;;;;;;24.88;29.71;99095.44;4991307;28;20422;-61
2020/12/24 11:26:23;;;;;;;;;;;;;;;24.79;29.76;99085.50;4992537;28;19926;-62
2020/12/24 11:28:50;;;;;;;;;;;;;;;24.69;29.91;99075.56;4990654;28;20540;-63
2020/12/24 11:31:29;;;;;;;;;;;;;;;24.61;30.13;99074.44;4982394;28;19952;-61
2020/12/24 11:33:56;;;;;;;;;;;;;;;24.55;30.18;99086.16;4991368;28;19933;-61
2020/12/24 11:36:22;;;;;;;;;;;;;;;24.50;30.31;99089.13;4975506;28;19930;-62
2020/12/24 11:38:48;;;;;;;;;;;;;;;24.46;30.47;99085.38;4992723;28;19961;-62
2020/12/24 11:41:15;;;;;;;;;;;;;;;24.41;30.44;99080.78;4992382;28;19933;-64
2020/12/24 11:43:43;;;;;;;;;;;;;;;24.36;30.50;99083.75;4990122;28;20428;-62
2020/12/24 11:46:09;;;;;;;;;;;;;;;24.34;30.76;99069.34;4983352;28;19953;-61
2020/12/24 11:48:36;;;;;;;;;;;;;;;24.35;30.76;99068.22;4990126;28;20407;-64
2020/12/24 11:51:06;;;;;;;;;;;;;;;24.34;30.87;99095.25;4990258;28;20407;-62
2020/12/24 11:53:33;;;;;;;;;;;;;;;24.30;31.12;99135.22;4990670;28;19984;-63
2020/12/24 11:55:59;;;;;;;;;;;;;;;24.25;30.99;99139.03;4991272;28;19929;-61
2020/12/24 11:58:25;;;;;;;;;;;;;;;24.19;31.20;99145.91;4972448;28;19933;-64
2020/12/24 12:00:52;;;;;;;;;;;;;;;24.13;31.35;99163.09;4976311;28;19988;-63
2020/12/24 12:03:18;;;;;;;;;;;;;;;24.08;31.44;99177.19;4988409;28;19929;-61
2020/12/24 12:05:44;;;;;;;;;;;;;;;24.01;31.47;99172.13;4984798;28;19932;-61
2020/12/24 12:08:11;;;;;;;;;;;;;;;23.98;31.70;99179.19;4974292;28;19964;-62
2020/12/24 12:10:37;;;;;;;;;;;;;;;23.98;31.64;99186.72;4992000;28;19926;-60
2020/12/24 12:13:03;;;;;;;;;;;;;;;23.96;31.71;99186.22;4985172;28;19926;-63
2020/12/24 12:15:29;;;;;;;;;;;;;;;23.97;31.81;99177.53;4982980;28;20013;-62
2020/12/24 12:17:56;;;;;;;;;;;;;;;23.96;31.79;99181.47;4976418;28;20025;-62
2020/12/24 12:20:22;;;;;;;;;;;;;;;23.92;31.55;99177.72;4994816;28;20289;-62
2020/12/24 12:22:48;;;;;;;;;;;;;;;23.90;31.82;99182.81;4987933;28;20462;-63
2020/12/24 12:25:15;;;;;;;;;;;;;;;23.91;32.11;99189.97;4993235;28;19953;-61
2020/12/24 12:27:44;;;;;;;;;;;;;;;23.88;31.67;99198.22;4995351;28;19988;-61
2020/12/24 12:30:10;;;;;;;;;;;;;;;23.86;31.70;99206.88;4986402;28;20039;-61
2020/12/24 12:32:36;;;;;;;;;;;;;;;23.88;31.94;99201.00;4989736;28;19930;-62
2020/12/24 12:35:03;;;;;;;;;;;;;;;23.83;31.79;99199.19;4994224;28;20411;-62
2020/12/24 12:37:29;;;;;;;;;;;;;;;23.80;31.86;99208.19;4995196;28;19972;-63
2020/12/24 12:39:55;;;;;;;;;;;;;;;23.81;32.00;99203.44;4993495;28;19961;-63
2020/12/24 12:42:21;;;;;;;;;;;;;;;23.81;32.30;99207.03;4977707;28;19957;-63
2020/12/24 12:44:48;;;;;;;;;;;;;;;23.82;31.68;99213.44;4994951;28;19933;-61
2020/12/24 12:47:14;;;;;;;;;;;;;;;23.71;32.12;99213.75;4995411;28;19980;-61
2020/12/24 12:49:40;;;;;;;;;;;;;;;23.72;32.02;99212.59;4994071;28;19926;-62